Time;durP1;ratioP1;P1;durP2;ratioP2;P2;SDS_P1;SDS_P2;PMS_P1;PMS_P2;Temp;Humidity;BMP_temperature;BMP_pressure;BME280_temperature;BME280_humidity;BME280_pressure;Samples;Min_cycle;Max_cycle;Signal;HPM_P1;HPM_P2
2024/03/03 00:01:05;;;;;;;1.50;1.00;;;18.50;57.60;;;;;;5093641;28;20787;-81
2024/03/03 00:03:34;;;;;;;1.60;1.10;;;18.40;57.50;;;;;;5092605;28;20487;-81
2024/03/03 00:06:01;;;;;;;1.60;1.00;;;18.40;57.50;;;;;;5093438;28;20437;-81
2024/03/03 00:08:28;;;;;;;2.53;1.20;;;18.40;57.50;;;;;;5093524;28;20511;-81
2024/03/03 00:10:54;;;;;;;1.80;0.97;;;18.40;57.50;;;;;;5093568;28;20519;-81
2024/03/03 00:13:21;;;;;;;1.50;0.80;;;18.40;57.50;;;;;;5094602;28;20446;-81
2024/03/03 00:15:50;;;;;;;1.60;1.00;;;18.40;57.50;;;;;;5094508;28;20526;-81
2024/03/03 00:18:16;;;;;;;1.50;1.00;;;18.40;57.50;;;;;;5094749;28;20522;-81
2024/03/03 00:20:43;;;;;;;1.43;0.90;;;18.40;57.50;;;;;;5094664;28;20436;-81
2024/03/03 00:23:10;;;;;;;1.60;1.10;;;18.40;57.50;;;;;;5094392;28;21104;-81
2024/03/03 00:25:37;;;;;;;1.70;1.07;;;18.40;57.50;;;;;;5101303;28;21045;-83
2024/03/03 00:28:04;;;;;;;1.50;0.93;;;18.40;57.50;;;;;;5103686;28;20797;-81
2024/03/03 00:30:34;;;;;;;1.60;1.00;;;18.40;57.50;;;;;;5095603;28;20545;-81
2024/03/03 00:33:02;;;;;;;1.50;0.90;;;18.40;57.50;;;;;;5094343;28;20930;-87
2024/03/03 00:35:29;;;;;;;1.50;1.00;;;18.40;57.50;;;;;;5094464;28;20442;-84
2024/03/03 00:37:56;;;;;;;1.50;1.00;;;18.40;57.50;;;;;;5095014;28;20438;-80
2024/03/03 00:40:22;;;;;;;1.77;1.30;;;18.40;57.50;;;;;;5095094;28;20856;-88
2024/03/03 00:42:49;;;;;;;1.80;1.13;;;18.40;57.50;;;;;;5095221;28;20952;-83
2024/03/03 00:45:16;;;;;;;2.10;1.10;;;18.40;57.50;;;;;;5095703;28;20526;-81
2024/03/03 00:47:44;;;;;;;1.43;0.93;;;18.40;58.10;;;;;;5095789;28;20434;-81
2024/03/03 00:50:12;;;;;;;1.70;1.00;;;18.40;57.50;;;;;;5094927;28;20442;-81
2024/03/03 00:52:39;;;;;;;1.70;1.03;;;18.40;57.50;;;;;;5095052;28;20641;-81
2024/03/03 00:55:07;;;;;;;1.50;1.03;;;18.40;57.50;;;;;;5093953;28;21049;-85
2024/03/03 00:57:34;;;;;;;1.63;1.07;;;18.40;57.50;;;;;;5095475;28;20489;-81
2024/03/03 01:00:01;;;;;;;2.07;1.10;;;18.40;57.50;;;;;;5094858;28;20442;-88
2024/03/03 01:02:27;;;;;;;1.60;1.07;;;18.40;57.50;;;;;;5094924;28;20436;-82
2024/03/03 01:04:55;;;;;;;1.50;1.10;;;18.40;57.50;;;;;;5095134;28;20446;-81
2024/03/03 01:07:23;;;;;;;1.67;1.00;;;18.40;57.50;;;;;;5094526;28;20527;-79
2024/03/03 01:09:50;;;;;;;1.70;1.10;;;18.40;57.50;;;;;;5094806;28;20514;-80
2024/03/03 01:12:19;;;;;;;1.53;0.90;;;18.40;57.50;;;;;;5094801;28;20503;-87
2024/03/03 01:14:46;;;;;;;1.50;0.80;;;18.40;57.50;;;;;;5095182;28;20428;-87
2024/03/03 01:17:13;;;;;;;1.53;0.93;;;18.40;57.50;;;;;;5099896;28;20861;-82
2024/03/03 01:19:39;;;;;;;1.60;1.00;;;18.40;57.50;;;;;;5100446;28;20535;-87
2024/03/03 01:22:07;;;;;;;1.60;1.00;;;18.40;57.50;;;;;;5099361;28;20526;-80
2024/03/03 01:24:35;;;;;;;1.70;1.10;;;18.40;57.50;;;;;;5098085;28;20566;-81
2024/03/03 01:27:02;;;;;;;3.87;0.93;;;18.40;57.50;;;;;;5097804;28;20450;-82
2024/03/03 01:29:29;;;;;;;1.50;1.00;;;18.40;58.10;;;;;;5097688;28;20940;-80
2024/03/03 01:31:56;;;;;;;1.60;1.00;;;18.40;57.50;;;;;;5097482;28;20471;-80
2024/03/03 01:34:25;;;;;;;1.50;1.00;;;18.40;57.50;;;;;;5098849;28;20439;-83
2024/03/03 01:36:52;;;;;;;1.50;0.90;;;18.40;57.50;;;;;;5098591;28;20478;-83
2024/03/03 01:39:19;;;;;;;1.70;1.10;;;18.40;57.50;;;;;;5098547;28;20432;-81
2024/03/03 01:41:47;;;;;;;1.60;1.00;;;18.40;57.50;;;;;;5098230;28;20442;-86
2024/03/03 01:44:14;;;;;;;1.53;1.00;;;18.40;57.50;;;;;;5098066;28;20483;-81
2024/03/03 01:46:43;;;;;;;1.80;1.13;;;18.40;57.50;;;;;;5098632;28;20442;-83
2024/03/03 01:49:14;;;;;;;1.60;1.07;;;18.40;57.50;;;;;;5097780;28;20442;-88
2024/03/03 01:51:42;;;;;;;1.80;1.20;;;18.40;57.50;;;;;;5096289;28;20497;-88
2024/03/03 01:54:09;;;;;;;1.90;1.10;;;18.40;57.50;;;;;;5095884;28;20428;-87
2024/03/03 01:56:39;;;;;;;1.60;1.00;;;18.40;57.50;;;;;;5096598;28;20451;-81
2024/03/03 01:59:10;;;;;;;1.60;1.00;;;18.40;57.50;;;;;;5096098;28;20427;-81
2024/03/03 02:01:37;;;;;;;2.00;1.20;;;18.40;57.40;;;;;;5096645;28;20523;-87
2024/03/03 02:04:05;;;;;;;1.50;1.00;;;18.40;57.50;;;;;;5096707;28;21065;-88
2024/03/03 02:06:35;;;;;;;1.90;1.00;;;18.40;57.50;;;;;;5098120;28;21030;-88
2024/03/03 02:09:02;;;;;;;1.60;0.90;;;18.40;57.50;;;;;;5099349;28;20466;-81
2024/03/03 02:11:30;;;;;;;1.50;1.00;;;18.40;57.50;;;;;;5097725;28;20842;-81
2024/03/03 02:13:57;;;;;;;1.60;1.20;;;18.40;57.40;;;;;;5098262;28;20443;-80
2024/03/03 02:16:26;;;;;;;1.73;1.27;;;18.40;57.40;;;;;;5096876;28;20435;-81
2024/03/03 02:18:53;;;;;;;1.70;1.07;;;18.40;57.50;;;;;;5096803;28;20475;-81
2024/03/03 02:21:23;;;;;;;1.70;1.10;;;18.40;57.40;;;;;;5095683;28;20435;-80
2024/03/03 02:23:50;;;;;;;1.60;0.90;;;18.40;57.50;;;;;;5095257;28;20478;-80
2024/03/03 02:26:18;;;;;;;1.60;1.03;;;18.40;57.40;;;;;;5094701;28;20451;-87
2024/03/03 02:28:45;;;;;;;1.77;0.90;;;18.40;57.40;;;;;;5095208;28;20444;-80
2024/03/03 02:31:11;;;;;;;1.60;1.10;;;18.30;57.30;;;;;;5095076;28;20467;-89
2024/03/03 02:33:38;;;;;;;1.70;1.20;;;18.30;57.30;;;;;;5095325;28;20526;-85
2024/03/03 02:36:06;;;;;;;1.50;0.90;;;18.40;57.40;;;;;;5095290;28;20424;-87
2024/03/03 02:38:34;;;;;;;1.60;1.07;;;18.30;57.30;;;;;;5094991;28;20531;-84
2024/03/03 02:41:01;;;;;;;1.50;1.00;;;18.40;57.40;;;;;;5095069;28;20431;-81
2024/03/03 02:43:27;;;;;;;1.60;0.90;;;18.30;57.30;;;;;;5094816;28;20505;-88
2024/03/03 02:45:54;;;;;;;1.60;1.00;;;18.30;57.30;;;;;;5094874;28;20977;-81
2024/03/03 02:48:21;;;;;;;1.70;1.10;;;18.30;57.30;;;;;;5095002;28;20466;-84
2024/03/03 02:50:48;;;;;;;1.60;0.93;;;18.30;57.30;;;;;;5094840;28;20527;-84
2024/03/03 02:53:15;;;;;;;1.50;1.03;;;18.30;57.30;;;;;;5094976;28;20523;-81
2024/03/03 02:55:43;;;;;;;1.80;0.90;;;18.40;57.40;;;;;;5094641;28;20452;-81
2024/03/03 02:58:10;;;;;;;1.73;1.17;;;18.30;57.20;;;;;;5094806;28;20431;-83
2024/03/03 03:00:37;;;;;;;1.70;1.00;;;18.30;57.20;;;;;;5094617;28;20431;-81
2024/03/03 03:03:04;;;;;;;1.97;1.10;;;18.30;57.20;;;;;;5094969;28;20940;-87
2024/03/03 03:05:31;;;;;;;1.70;1.10;;;18.30;57.20;;;;;;5094951;28;20511;-88
2024/03/03 03:07:57;;;;;;;1.50;0.90;;;18.30;57.30;;;;;;5095393;28;20443;-88
2024/03/03 03:10:24;;;;;;;1.60;1.10;;;18.30;57.90;;;;;;5095239;28;20435;-81
2024/03/03 03:12:52;;;;;;;1.63;1.00;;;18.30;57.30;;;;;;5103756;28;20530;-81
2024/03/03 03:15:19;;;;;;;1.77;1.07;;;18.30;57.20;;;;;;5104374;28;20506;-81
2024/03/03 03:17:47;;;;;;;1.63;0.90;;;18.30;57.30;;;;;;5095619;28;20436;-81
2024/03/03 03:20:14;;;;;;;1.90;1.30;;;18.30;57.30;;;;;;5094189;28;20438;-81
2024/03/03 03:22:41;;;;;;;1.60;1.10;;;18.30;57.30;;;;;;5094233;28;20432;-80
2024/03/03 03:25:08;;;;;;;1.87;1.10;;;18.30;57.30;;;;;;5094044;28;20492;-81
2024/03/03 03:27:35;;;;;;;1.50;0.90;;;18.30;57.20;;;;;;5094438;28;21000;-89
2024/03/03 03:30:06;;;;;;;1.70;1.03;;;18.30;57.20;;;;;;5093764;28;20467;-82
2024/03/03 03:32:33;;;;;;;1.57;0.93;;;18.30;57.20;;;;;;5094806;28;20488;-81
2024/03/03 03:35:00;;;;;;;1.73;1.10;;;18.30;57.20;;;;;;5093915;28;20432;-81
2024/03/03 03:37:26;;;;;;;1.60;1.07;;;18.30;57.20;;;;;;5093584;28;20432;-82
2024/03/03 03:39:53;;;;;;;1.60;1.00;;;18.30;57.30;;;;;;5093287;28;20440;-85
2024/03/03 03:42:20;;;;;;;1.50;0.90;;;18.30;57.30;;;;;;5093799;28;20438;-88
2024/03/03 03:44:47;;;;;;;1.60;1.13;;;18.30;57.20;;;;;;5093848;28;20487;-81
2024/03/03 03:47:15;;;;;;;1.60;1.00;;;18.30;57.20;;;;;;5093975;28;20931;-84
2024/03/03 03:49:42;;;;;;;2.07;1.30;;;18.30;57.20;;;;;;5093536;28;20444;-82
2024/03/03 03:52:09;;;;;;;1.90;1.10;;;18.30;57.30;;;;;;5093533;28;20423;-81
2024/03/03 03:54:36;;;;;;;1.83;1.10;;;18.30;57.20;;;;;;5093501;28;20442;-81
2024/03/03 03:57:03;;;;;;;1.60;1.00;;;18.30;57.20;;;;;;5093606;28;20455;-80
2024/03/03 03:59:29;;;;;;;1.70;1.00;;;18.30;57.30;;;;;;5093440;28;20446;-81
2024/03/03 04:02:00;;;;;;;1.70;1.20;;;18.30;57.30;;;;;;5093651;28;20431;-82
2024/03/03 04:04:28;;;;;;;3.30;1.40;;;18.30;57.30;;;;;;5094119;28;20475;-81
2024/03/03 04:06:55;;;;;;;1.60;1.10;;;18.30;57.30;;;;;;5093610;28;20527;-87
2024/03/03 04:09:22;;;;;;;1.60;1.00;;;18.30;57.30;;;;;;5093542;28;20431;-88
2024/03/03 04:11:49;;;;;;;1.60;0.90;;;18.30;57.30;;;;;;5093448;28;20792;-80
2024/03/03 04:14:15;;;;;;;1.50;1.00;;;18.30;57.30;;;;;;5093412;28;20844;-81
2024/03/03 04:16:44;;;;;;;1.50;0.97;;;18.30;57.30;;;;;;5093519;28;20430;-82
2024/03/03 04:19:11;;;;;;;1.63;1.20;;;18.20;57.20;;;;;;5093556;28;20559;-83
2024/03/03 04:21:42;;;;;;;1.70;1.10;;;18.20;57.20;;;;;;5093140;28;20526;-87
2024/03/03 04:24:10;;;;;;;1.80;1.20;;;18.30;57.30;;;;;;5093375;28;20483;-85
2024/03/03 04:26:37;;;;;;;1.87;1.40;;;18.30;57.30;;;;;;5093607;28;20455;-85
2024/03/03 04:29:04;;;;;;;1.50;1.00;;;18.20;57.30;;;;;;5093336;28;20534;-88
2024/03/03 04:31:31;;;;;;;1.53;0.90;;;18.30;57.30;;;;;;5093220;28;20558;-87
2024/03/03 04:33:58;;;;;;;1.77;1.20;;;18.20;57.20;;;;;;5093181;28;20763;-88
2024/03/03 04:36:25;;;;;;;1.60;1.00;;;18.20;57.20;;;;;;5093595;28;20439;-88
2024/03/03 04:38:53;;;;;;;1.60;1.07;;;18.20;57.20;;;;;;5093281;28;20534;-80
2024/03/03 04:41:21;;;;;;;1.70;1.00;;;18.20;57.30;;;;;;5093660;28;20519;-81
2024/03/03 04:43:48;;;;;;;1.80;1.30;;;18.20;57.30;;;;;;5093218;28;20436;-83
2024/03/03 04:46:14;;;;;;;1.70;1.03;;;18.20;57.30;;;;;;5093302;28;20876;-83
2024/03/03 04:48:41;;;;;;;1.80;1.00;;;18.20;57.30;;;;;;5093247;28;20431;-88
2024/03/03 04:51:08;;;;;;;1.57;1.20;;;18.20;57.30;;;;;;5096096;28;20534;-81
2024/03/03 04:53:35;;;;;;;1.90;1.20;;;18.20;57.30;;;;;;5097027;28;20455;-82
2024/03/03 04:56:04;;;;;;;1.73;1.10;;;18.20;57.30;;;;;;5096984;28;20542;-87
2024/03/03 04:58:31;;;;;;;1.50;0.90;;;18.20;57.30;;;;;;5097010;28;20447;-81
2024/03/03 05:00:58;;;;;;;2.30;1.57;;;18.30;57.40;;;;;;5096955;28;20462;-87
2024/03/03 05:03:26;;;;;;;1.60;0.90;;;18.20;57.30;;;;;;5096910;28;20438;-88
2024/03/03 05:05:53;;;;;;;1.80;1.23;;;18.20;57.30;;;;;;5096736;28;20508;-81
2024/03/03 05:08:20;;;;;;;1.90;1.27;;;18.20;57.30;;;;;;5096856;28;20522;-81
2024/03/03 05:10:46;;;;;;;1.60;1.10;;;18.20;57.30;;;;;;5096617;28;20956;-81
2024/03/03 05:13:15;;;;;;;1.60;1.10;;;18.20;57.40;;;;;;5096691;28;20441;-81
2024/03/03 05:15:41;;;;;;;1.80;1.30;;;18.20;57.30;;;;;;5096561;28;20522;-81
2024/03/03 05:18:08;;;;;;;2.47;1.17;;;18.20;57.40;;;;;;5096726;28;20446;-88
2024/03/03 05:20:35;;;;;;;1.60;1.00;;;18.10;57.30;;;;;;5096870;28;20441;-81
2024/03/03 05:23:02;;;;;;;1.70;1.10;;;18.10;57.30;;;;;;5096441;28;20526;-81
2024/03/03 05:25:29;;;;;;;1.90;1.30;;;18.20;57.40;;;;;;5096659;28;20487;-81
2024/03/03 05:27:55;;;;;;;1.60;1.10;;;18.10;57.30;;;;;;5096607;28;20442;-81
2024/03/03 05:30:24;;;;;;;1.73;1.03;;;18.10;57.30;;;;;;5096097;28;20545;-81
2024/03/03 05:32:52;;;;;;;1.60;1.10;;;18.20;57.40;;;;;;5096660;28;20443;-87
2024/03/03 05:35:18;;;;;;;2.00;1.20;;;18.10;57.30;;;;;;5096498;28;20446;-87
2024/03/03 05:37:45;;;;;;;1.70;1.23;;;18.10;57.30;;;;;;5097899;28;20522;-88
2024/03/03 05:40:12;;;;;;;1.80;1.30;;;18.10;57.30;;;;;;5104115;28;20531;-81
2024/03/03 05:42:39;;;;;;;1.70;1.23;;;18.10;57.30;;;;;;5113198;28;20500;-85
2024/03/03 05:45:07;;;;;;;1.80;1.07;;;18.10;57.30;;;;;;5100530;28;20487;-81
2024/03/03 05:47:35;;;;;;;2.20;1.50;;;18.10;57.30;;;;;;5097773;28;20466;-87
2024/03/03 05:50:02;;;;;;;1.93;1.07;;;18.10;57.30;;;;;;5100607;28;20545;-88
2024/03/03 05:52:30;;;;;;;2.07;1.40;;;18.10;57.30;;;;;;5096580;28;20486;-88
2024/03/03 05:54:57;;;;;;;1.50;1.00;;;18.10;57.30;;;;;;5096835;28;20950;-88
2024/03/03 05:57:23;;;;;;;2.03;1.30;;;18.10;57.30;;;;;;5098197;28;20475;-88
2024/03/03 05:59:50;;;;;;;1.90;1.30;;;18.10;57.30;;;;;;5103370;28;20832;-81
2024/03/03 06:02:17;;;;;;;2.03;1.33;;;18.10;57.30;;;;;;5101368;28;20428;-80
2024/03/03 06:04:45;;;;;;;2.00;1.30;;;18.10;57.30;;;;;;5099756;28;21004;-87
2024/03/03 06:07:12;;;;;;;1.60;1.10;;;18.10;57.30;;;;;;5097548;28;20436;-84
2024/03/03 06:09:39;;;;;;;1.73;1.17;;;18.10;57.30;;;;;;5096147;28;20809;-81
2024/03/03 06:12:09;;;;;;;1.70;1.20;;;18.10;57.30;;;;;;5095774;28;20493;-80
2024/03/03 06:14:36;;;;;;;1.60;1.03;;;18.10;57.30;;;;;;5095674;28;20968;-81
2024/03/03 06:17:03;;;;;;;1.63;1.00;;;18.10;57.30;;;;;;5095732;28;20431;-81
2024/03/03 06:19:29;;;;;;;1.60;1.20;;;18.10;57.30;;;;;;5095504;28;20431;-81
2024/03/03 06:21:58;;;;;;;1.70;1.20;;;18.10;57.30;;;;;;5096315;28;20427;-85
2024/03/03 06:24:25;;;;;;;1.83;1.20;;;18.10;57.30;;;;;;5097440;28;21081;-82
2024/03/03 06:29:35;;;;;;;2.00;1.20;;;18.10;57.30;;;;;;5098131;28;20441;-81
2024/03/03 06:32:02;;;;;;;1.80;1.10;;;18.10;57.30;;;;;;5101592;22;20484;-87
2024/03/03 06:34:31;;;;;;;1.60;1.20;;;18.10;57.30;;;;;;5082631;28;20476;-82
2024/03/03 06:37:06;;;;;;;1.90;1.20;;;18.10;57.30;;;;;;5077848;28;20428;-85
2024/03/03 06:39:32;;;;;;;1.57;1.10;;;18.10;57.30;;;;;;5076083;28;20432;-82
2024/03/03 06:41:59;;;;;;;1.80;1.00;;;18.10;57.30;;;;;;5075083;28;20439;-86
2024/03/03 06:44:26;;;;;;;1.87;1.20;;;18.10;57.30;;;;;;5075498;28;20974;-81
2024/03/03 06:46:53;;;;;;;1.80;1.20;;;18.10;57.30;;;;;;5075919;28;20444;-84
2024/03/03 06:49:20;;;;;;;1.50;1.00;;;18.10;57.30;;;;;;5075421;28;20447;-81
2024/03/03 06:51:48;;;;;;;1.67;1.10;;;18.10;57.30;;;;;;5074729;28;20524;-80
2024/03/03 06:54:16;;;;;;;1.70;1.20;;;18.10;57.30;;;;;;5075284;28;20436;-80
2024/03/03 06:56:43;;;;;;;1.50;1.00;;;18.10;57.30;;;;;;5075603;28;20539;-85
2024/03/03 06:59:11;;;;;;;1.80;1.10;;;18.10;57.30;;;;;;5076879;28;20567;-82
2024/03/03 07:01:38;;;;;;;1.80;1.30;;;18.10;57.40;;;;;;5075179;28;20429;-86
2024/03/03 07:06:51;;;;;;;1.60;1.00;;;18.10;57.30;;;;;;5068282;28;20777;-81
2024/03/03 07:09:22;;;;;;;1.60;0.97;;;18.10;57.30;;;;;;5074194;28;20867;-87
2024/03/03 07:11:50;;;;;;;1.60;1.03;;;18.10;57.30;;;;;;5074311;28;20436;-84
2024/03/03 07:14:17;;;;;;;1.70;1.20;;;18.10;57.30;;;;;;5073958;28;20438;-83
2024/03/03 07:16:44;;;;;;;1.90;1.10;;;18.10;57.30;;;;;;5074047;28;20527;-85
2024/03/03 07:19:11;;;;;;;2.30;1.30;;;18.10;57.30;;;;;;5073931;28;20524;-83
2024/03/03 07:21:38;;;;;;;1.80;1.20;;;18.10;57.30;;;;;;5073811;28;20523;-83
2024/03/03 07:24:05;;;;;;;1.60;1.00;;;18.10;57.30;;;;;;5073957;28;20435;-84
2024/03/03 07:26:33;;;;;;;2.00;1.50;;;18.10;57.30;;;;;;5073728;28;20488;-82
2024/03/03 07:29:02;;;;;;;1.73;1.20;;;18.10;57.30;;;;;;5073805;28;20466;-88
2024/03/03 07:31:29;;;;;;;2.27;1.40;;;18.10;57.30;;;;;;5074003;28;20539;-81
2024/03/03 07:33:56;;;;;;;1.70;1.10;;;18.10;57.30;;;;;;5073607;28;20887;-88
2024/03/03 07:36:23;;;;;;;1.57;1.00;;;18.10;57.30;;;;;;5073477;28;20539;-81
2024/03/03 07:38:49;;;;;;;1.90;1.33;;;18.10;57.30;;;;;;5073470;28;20436;-83
2024/03/03 07:41:16;;;;;;;1.90;1.40;;;18.20;57.40;;;;;;5073382;28;20523;-81
2024/03/03 07:43:44;;;;;;;1.83;1.30;;;18.20;57.40;;;;;;5073535;28;20440;-81
2024/03/03 07:46:12;;;;;;;1.90;1.27;;;18.20;57.30;;;;;;5073195;28;20480;-81
2024/03/03 07:48:39;;;;;;;2.07;1.10;;;18.20;57.30;;;;;;5073278;28;20437;-81
2024/03/03 07:51:07;;;;;;;1.60;1.00;;;18.20;57.30;;;;;;5073357;28;20432;-85
2024/03/03 07:53:34;;;;;;;1.90;1.00;;;18.20;57.30;;;;;;5073347;28;20444;-81
2024/03/03 07:56:01;;;;;;;1.70;1.03;;;18.20;57.30;;;;;;5073206;28;20492;-81
2024/03/03 07:58:28;;;;;;;1.83;1.30;;;18.10;57.20;;;;;;5073322;28;20795;-83
2024/03/03 08:00:58;;;;;;;1.60;1.10;;;18.20;57.30;;;;;;5073212;28;20540;-81
2024/03/03 08:03:25;;;;;;;1.70;1.20;;;18.20;57.30;;;;;;5073027;28;20524;-81
2024/03/03 08:05:52;;;;;;;1.93;1.37;;;18.20;57.30;;;;;;5073420;28;20484;-81
2024/03/03 08:08:19;;;;;;;1.60;1.13;;;18.10;57.20;;;;;;5073040;28;20535;-82
2024/03/03 08:10:45;;;;;;;1.63;1.13;;;18.20;57.30;;;;;;5073146;28;20432;-81
2024/03/03 08:13:12;;;;;;;1.93;1.20;;;18.10;57.20;;;;;;5072991;28;20447;-87
2024/03/03 08:15:39;;;;;;;1.53;1.00;;;18.20;57.30;;;;;;5072905;28;20504;-81
2024/03/03 08:18:07;;;;;;;2.10;1.30;;;18.20;57.30;;;;;;5072995;28;20523;-81
2024/03/03 08:20:34;;;;;;;1.70;1.10;;;18.20;57.30;;;;;;5072961;28;20439;-81
2024/03/03 08:23:01;;;;;;;1.50;1.00;;;18.20;57.30;;;;;;5072977;28;20523;-85
2024/03/03 08:25:28;;;;;;;1.83;1.33;;;18.20;57.30;;;;;;5075059;28;20486;-84
2024/03/03 08:28:01;;;;;;;1.73;1.20;;;18.20;57.30;;;;;;5076881;28;20523;-79
2024/03/03 08:30:28;;;;;;;1.80;1.37;;;18.20;57.30;;;;;;5076921;28;20497;-81
2024/03/03 08:32:54;;;;;;;1.70;1.30;;;18.20;57.40;;;;;;5076847;28;20563;-81
2024/03/03 08:35:22;;;;;;;1.60;1.20;;;18.20;57.40;;;;;;5077104;28;20527;-81
2024/03/03 08:37:49;;;;;;;1.80;1.10;;;18.20;57.50;;;;;;5077129;28;20450;-81
2024/03/03 08:40:17;;;;;;;1.90;1.40;;;18.20;57.50;;;;;;5077033;28;20439;-82
2024/03/03 08:42:45;;;;;;;1.70;1.30;;;18.20;57.60;;;;;;5079464;28;20442;-79
2024/03/03 08:45:19;;;;;;;1.70;1.27;;;18.20;58.20;;;;;;5080356;28;20831;-81
2024/03/03 08:47:46;;;;;;;1.60;1.30;;;18.20;57.60;;;;;;5085792;28;20432;-81
2024/03/03 08:50:14;;;;;;;1.60;1.10;;;18.30;57.60;;;;;;5090967;28;20451;-83
2024/03/03 08:52:42;;;;;;;1.83;1.20;;;18.30;57.60;;;;;;5087945;28;20440;-82
2024/03/03 08:55:09;;;;;;;2.20;1.40;;;18.30;57.70;;;;;;5081171;28;20903;-88
2024/03/03 08:57:38;;;;;;;2.33;1.40;;;18.30;57.90;;;;;;5081177;28;20519;-80
2024/03/03 09:00:13;;;;;;;2.40;1.50;;;18.40;57.80;;;;;;5082729;28;20494;-83
2024/03/03 09:02:44;;;;;;;1.70;1.13;;;18.40;58.00;;;;;;5081803;28;20438;-86
2024/03/03 09:05:13;;;;;;;1.70;1.20;;;18.40;57.80;;;;;;5080712;28;20440;-81
2024/03/03 09:07:40;;;;;;;1.70;1.20;;;18.50;57.90;;;;;;5079220;28;20479;-89
2024/03/03 09:10:11;;;;;;;1.83;1.43;;;18.50;57.90;;;;;;5081213;28;20940;-82
2024/03/03 09:12:38;;;;;;;1.50;1.03;;;18.60;58.00;;;;;;5079960;28;20941;-86
2024/03/03 09:15:06;;;;;;;2.00;1.20;;;18.50;57.90;;;;;;5079907;28;20439;-81
2024/03/03 09:17:35;;;;;;;2.10;1.40;;;18.60;58.00;;;;;;5079856;28;20500;-88
2024/03/03 09:20:03;;;;;;;1.80;1.27;;;18.60;57.90;;;;;;5081334;28;20479;-88
2024/03/03 09:22:31;;;;;;;1.70;1.40;;;18.60;58.00;;;;;;5079914;28;20436;-83
2024/03/03 09:24:58;;;;;;;1.80;1.20;;;18.60;58.00;;;;;;5079519;28;20542;-85
2024/03/03 09:27:26;;;;;;;1.63;1.20;;;18.70;58.00;;;;;;5080080;28;20490;-88
2024/03/03 09:29:53;;;;;;;2.23;1.40;;;18.70;57.80;;;;;;5080126;28;20503;-89
2024/03/03 09:32:20;;;;;;;1.80;1.53;;;18.80;57.90;;;;;;5079625;28;20824;-82
2024/03/03 09:34:47;;;;;;;2.10;1.23;;;18.80;58.00;;;;;;5080209;28;20476;-88
2024/03/03 09:37:14;;;;;;;2.70;1.40;;;18.80;57.90;;;;;;5079681;28;20441;-88
2024/03/03 09:39:41;;;;;;;1.70;1.13;;;18.90;58.00;;;;;;5080333;28;20500;-86
2024/03/03 09:42:09;;;;;;;2.00;1.37;;;18.90;58.20;;;;;;5079162;28;20531;-89
2024/03/03 09:44:45;;;;;;;1.70;1.20;;;18.90;58.10;;;;;;5079970;28;21014;-82
2024/03/03 09:47:13;;;;;;;1.77;1.30;;;18.90;58.20;;;;;;5079878;28;20483;-88
2024/03/03 09:49:42;;;;;;;1.50;1.00;;;18.90;58.20;;;;;;5078418;28;20437;-81
2024/03/03 09:52:13;;;;;;;1.60;1.20;;;18.90;58.20;;;;;;5079896;28;20433;-89
2024/03/03 09:54:44;;;;;;;1.83;1.20;;;19.00;58.60;;;;;;5079639;28;20463;-83
2024/03/03 09:57:16;;;;;;;2.10;1.30;;;19.10;58.30;;;;;;5079253;28;20939;-85
2024/03/03 09:59:51;;;;;;;2.13;1.43;;;19.10;59.00;;;;;;5080128;28;20789;-87
2024/03/03 10:02:20;;;;;;;2.23;1.60;;;19.20;58.30;;;;;;5079470;28;20524;-88
2024/03/03 10:04:48;;;;;;;2.07;1.60;;;19.20;58.30;;;;;;5079060;28;20828;-81
2024/03/03 10:07:22;;;;;;;1.93;1.60;;;19.20;58.30;;;;;;5077860;28;20543;-81
2024/03/03 10:09:57;;;;;;;1.90;1.33;;;19.30;58.30;;;;;;5078874;28;20428;-81
2024/03/03 10:12:26;;;;;;;1.90;1.40;;;19.30;58.30;;;;;;5079410;28;20463;-81
2024/03/03 10:14:57;;;;;;;2.13;1.60;;;19.30;58.30;;;;;;5078384;28;20515;-88
2024/03/03 10:17:26;;;;;;;2.40;1.70;;;19.30;58.20;;;;;;5079427;28;20436;-80
2024/03/03 10:19:54;;;;;;;1.90;1.40;;;19.40;58.30;;;;;;5078740;28;20432;-81
2024/03/03 10:22:23;;;;;;;1.77;1.37;;;19.40;58.30;;;;;;5078413;28;20846;-86
2024/03/03 10:24:50;;;;;;;2.10;1.47;;;19.40;58.50;;;;;;5079009;28;20453;-81
2024/03/03 10:27:18;;;;;;;2.53;1.33;;;19.40;58.30;;;;;;5078587;28;20488;-87
2024/03/03 10:29:47;;;;;;;2.13;1.37;;;19.40;58.30;;;;;;5078604;28;20437;-80
2024/03/03 10:32:16;;;;;;;2.10;1.40;;;19.40;58.30;;;;;;5078709;28;20452;-85
2024/03/03 10:34:55;;;;;;;1.80;1.27;;;19.40;58.40;;;;;;5078123;28;20466;-85
2024/03/03 10:37:26;;;;;;;1.80;1.30;;;19.50;59.10;;;;;;5079560;28;20527;-87
2024/03/03 10:39:56;;;;;;;2.20;1.53;;;19.50;58.50;;;;;;5079173;28;20472;-83
2024/03/03 10:42:24;;;;;;;1.83;1.53;;;19.50;58.50;;;;;;5078274;28;20437;-87
2024/03/03 10:44:52;;;;;;;1.70;1.30;;;19.50;58.50;;;;;;5078306;28;20440;-81
2024/03/03 10:47:20;;;;;;;1.93;1.20;;;19.50;58.50;;;;;;5078111;28;20484;-80
2024/03/03 10:49:47;;;;;;;1.97;1.77;;;19.50;58.50;;;;;;5078535;28;20508;-82
2024/03/03 10:52:14;;;;;;;2.03;1.60;;;19.50;58.50;;;;;;5080917;28;20475;-79
2024/03/03 10:54:42;;;;;;;1.63;1.20;;;19.50;58.60;;;;;;5079671;28;20460;-82
2024/03/03 10:57:13;;;;;;;1.70;1.20;;;19.50;58.70;;;;;;5079175;28;20444;-82
2024/03/03 10:59:42;;;;;;;2.10;1.50;;;19.50;58.70;;;;;;5079292;28;20437;-89
2024/03/03 11:02:12;;;;;;;1.70;1.33;;;19.50;58.70;;;;;;5080863;28;20958;-81
2024/03/03 11:04:42;;;;;;;2.53;1.10;;;19.50;58.60;;;;;;5078926;28;20443;-81
2024/03/03 11:07:11;;;;;;;1.80;1.57;;;19.60;58.70;;;;;;5078273;28;20476;-82
2024/03/03 11:09:38;;;;;;;3.27;1.47;;;19.50;58.70;;;;;;5077902;28;20424;-83
2024/03/03 11:12:07;;;;;;;1.70;1.30;;;19.60;58.80;;;;;;5076981;28;20999;-82
2024/03/03 11:14:44;;;;;;;2.07;1.33;;;19.60;58.80;;;;;;5075788;28;21006;-82
2024/03/03 11:17:15;;;;;;;1.90;1.50;;;19.60;58.90;;;;;;5074245;28;20505;-82
2024/03/03 11:19:47;;;;;;;2.00;1.30;;;19.60;58.90;;;;;;5073992;28;20958;-82
2024/03/03 11:22:18;;;;;;;1.80;1.40;;;19.60;59.00;;;;;;5073824;28;20444;-82
2024/03/03 11:24:57;;;;;;;2.10;1.50;;;19.70;59.10;;;;;;5073697;28;20465;-82
2024/03/03 11:27:26;;;;;;;1.90;1.30;;;19.70;59.10;;;;;;5073732;28;20515;-82
2024/03/03 11:29:54;;;;;;;2.00;1.37;;;19.80;59.10;;;;;;5073635;28;20443;-82
2024/03/03 11:32:24;;;;;;;1.93;1.27;;;19.80;59.20;;;;;;5073353;28;20979;-82
2024/03/03 11:34:53;;;;;;;2.13;1.60;;;19.90;59.30;;;;;;5073562;28;20524;-82
2024/03/03 11:37:21;;;;;;;1.97;1.50;;;19.90;59.20;;;;;;5073409;28;20443;-82
2024/03/03 11:39:53;;;;;;;1.90;1.60;;;19.90;59.20;;;;;;5073870;28;20540;-80
2024/03/03 11:42:28;;;;;;;2.67;1.50;;;20.00;59.30;;;;;;5075581;28;20512;-82
2024/03/03 11:44:55;;;;;;;2.40;1.70;;;20.00;59.80;;;;;;5075459;28;20427;-82
2024/03/03 11:47:24;;;;;;;2.33;1.50;;;20.10;59.30;;;;;;5075096;28;20979;-82
2024/03/03 11:49:52;;;;;;;2.00;1.70;;;20.10;59.30;;;;;;5074911;28;20436;-81
2024/03/03 11:52:38;;;;;;;2.10;1.60;;;20.10;59.30;;;;;;5073631;28;20523;-83
2024/03/03 11:55:06;;;;;;;1.70;1.20;;;20.20;59.40;;;;;;5073246;28;20544;-82
2024/03/03 11:57:33;;;;;;;1.80;1.33;;;20.20;59.40;;;;;;5073351;28;20515;-81
2024/03/03 12:00:10;;;;;;;1.90;1.30;;;20.20;59.40;;;;;;5072270;28;20511;-81
2024/03/03 12:02:39;;;;;;;1.90;1.37;;;20.30;59.40;;;;;;5073199;28;20439;-81
2024/03/03 12:05:08;;;;;;;2.30;1.43;;;20.30;59.40;;;;;;5073169;28;20436;-81
2024/03/03 12:07:39;;;;;;;1.70;1.13;;;20.30;59.40;;;;;;5073399;28;20480;-81
2024/03/03 12:10:14;;;;;;;1.80;1.23;;;20.30;59.40;;;;;;5073387;28;20655;-81
2024/03/03 12:12:41;;;;;;;1.90;1.50;;;20.30;59.40;;;;;;5073674;28;20435;-81
2024/03/03 12:15:09;;;;;;;2.10;1.50;;;20.40;59.50;;;;;;5073174;28;20433;-81
2024/03/03 12:17:36;;;;;;;1.90;1.50;;;20.40;59.50;;;;;;5073479;28;20439;-81
2024/03/03 12:20:07;;;;;;;2.27;1.70;;;20.40;59.50;;;;;;5073528;28;20452;-81
2024/03/03 12:22:34;;;;;;;1.73;1.30;;;20.50;59.50;;;;;;5073676;28;20438;-82
2024/03/03 12:25:01;;;;;;;2.23;1.57;;;20.50;59.50;;;;;;5074132;28;20989;-88
2024/03/03 12:27:28;;;;;;;2.00;1.40;;;20.50;59.50;;;;;;5081133;28;20527;-81
2024/03/03 12:30:00;;;;;;;2.27;1.23;;;20.50;59.50;;;;;;5073395;28;20435;-83
2024/03/03 12:32:27;;;;;;;1.90;1.40;;;20.50;59.50;;;;;;5073303;28;20515;-82
2024/03/03 12:34:55;;;;;;;3.10;1.57;;;20.60;59.60;;;;;;5073349;28;20904;-82
2024/03/03 12:37:24;;;;;;;2.10;1.40;;;20.60;59.50;;;;;;5072366;28;20438;-81
2024/03/03 12:39:52;;;;;;;2.40;1.60;;;20.60;59.50;;;;;;5073557;28;20436;-82
2024/03/03 12:42:19;;;;;;;2.30;1.70;;;20.70;59.60;;;;;;5073313;28;20806;-82
2024/03/03 12:44:46;;;;;;;1.90;1.53;;;20.70;59.70;;;;;;5073253;28;20865;-81
2024/03/03 12:47:14;;;;;;;1.80;1.30;;;20.70;59.50;;;;;;5073316;28;20843;-81
2024/03/03 12:49:42;;;;;;;2.17;1.40;;;20.80;59.60;;;;;;5073127;28;20437;-81
2024/03/03 12:52:20;;;;;;;1.90;1.20;;;20.80;59.60;;;;;;5074447;28;20523;-80
2024/03/03 12:54:50;;;;;;;2.00;1.20;;;20.80;59.60;;;;;;5075241;28;20986;-81
2024/03/03 12:57:22;;;;;;;1.87;1.43;;;20.80;59.90;;;;;;5073293;28;20446;-82